Time;durP1;ratioP1;P1;durP2;ratioP2;P2;SDS_P1;SDS_P2;PMS_P1;PMS_P2;Temp;Humidity;BMP_temperature;BMP_pressure;BME280_temperature;BME280_humidity;BME280_pressure;Samples;Min_cycle;Max_cycle;Signal;HPM_P1;HPM_P2
2023/04/20 00:00:43;;;;;;;5.65;3.60;;;;;;;-145.41;100.00;58600.66;4983026;28;20030;-74
2023/04/20 00:03:08;;;;;;;6.53;3.45;;;;;;;-145.41;100.00;58600.66;4981782;28;20490;-75
2023/04/20 00:05:34;;;;;;;6.60;3.60;;;;;;;-145.41;100.00;58600.66;4987252;28;20084;-75
2023/04/20 00:08:00;;;;;;;5.95;3.65;;;;;;;-145.41;100.00;58600.66;4981614;28;20064;-74
2023/04/20 00:10:25;;;;;;;5.78;3.60;;;;;;;-145.41;100.00;58600.66;4987927;28;20037;-74
2023/04/20 00:12:51;;;;;;;5.50;3.17;;;;;;;-145.41;100.00;58600.66;4987502;28;20030;-75
2023/04/20 00:15:16;;;;;;;7.10;3.53;;;;;;;-145.41;100.00;58600.66;4984309;28;20493;-75
2023/04/20 00:17:42;;;;;;;5.43;3.47;;;;;;;-145.41;100.00;58600.66;4983255;28;20077;-74
2023/04/20 00:20:08;;;;;;;7.50;4.05;;;;;;;-145.41;100.00;58600.66;4988095;28;20154;-74
2023/04/20 00:22:34;;;;;;;5.18;3.40;;;;;;;-145.41;100.00;58600.66;4989383;28;20456;-74
2023/04/20 00:25:00;;;;;;;5.85;3.80;;;;;;;-145.41;100.00;58600.66;4987084;28;20038;-74
2023/04/20 00:27:25;;;;;;;6.55;4.07;;;;;;;-145.41;100.00;58600.66;4984002;28;20404;-74
2023/04/20 00:29:50;;;;;;;7.90;4.15;;;;;;;-145.41;100.00;58600.66;4991461;28;20026;-75
2023/04/20 00:32:16;;;;;;;7.22;4.28;;;;;;;-145.41;100.00;58600.66;4986743;28;20050;-74
2023/04/20 00:34:41;;;;;;;6.30;3.95;;;;;;;-145.41;100.00;58600.66;4974576;28;20034;-74
2023/04/20 00:37:06;;;;;;;6.78;4.97;;;;;;;-145.41;100.00;58600.66;4983930;28;20030;-74
2023/04/20 00:39:32;;;;;;;6.80;4.15;;;;;;;-145.41;100.00;58600.66;4980181;28;20031;-74
2023/04/20 00:42:05;;;;;;;7.53;4.50;;;;;;;-145.41;100.00;58600.66;4972049;28;20043;-74
2023/04/20 00:44:31;;;;;;;6.53;4.50;;;;;;;-145.41;100.00;58600.66;4991961;28;20026;-74
2023/04/20 00:46:56;;;;;;;7.47;5.15;;;;;;;-145.41;100.00;58600.66;4986420;28;20493;-74
2023/04/20 00:49:25;;;;;;;7.00;5.00;;;;;;;-145.41;100.00;58600.66;4980857;28;20030;-74
2023/04/20 00:51:51;;;;;;;7.20;4.70;;;;;;;-145.41;100.00;58600.66;4979680;28;20033;-74
2023/04/20 00:54:17;;;;;;;7.05;4.88;;;;;;;-145.41;100.00;58600.66;4986474;28;20508;-74
2023/04/20 00:56:43;;;;;;;6.75;4.97;;;;;;;-145.41;100.00;58600.66;4983987;28;20042;-74
2023/04/20 00:59:09;;;;;;;6.75;4.63;;;;;;;-145.41;100.00;58600.66;4963632;28;20049;-74
2023/04/20 01:01:34;;;;;;;6.53;4.72;;;;;;;-145.41;100.00;58600.66;4992259;28;20053;-75
2023/04/20 01:03:59;;;;;;;6.45;4.68;;;;;;;-145.41;100.00;58600.66;4984957;28;20042;-75
2023/04/20 01:06:28;;;;;;;8.63;5.70;;;;;;;-145.41;100.00;58600.66;4968409;28;20035;-74
2023/04/20 01:08:53;;;;;;;7.30;4.68;;;;;;;-145.41;100.00;58600.66;4983134;28;20045;-74
2023/04/20 01:11:19;;;;;;;5.93;4.57;;;;;;;-145.41;100.00;58600.66;4983947;28;20050;-74
2023/04/20 01:13:44;;;;;;;7.72;5.00;;;;;;;-145.41;100.00;58600.66;4996895;23;20172;-76
2023/04/20 01:16:10;;;;;;;7.10;5.05;;;;;;;-145.41;100.00;58600.66;4981843;28;20057;-76
2023/04/20 01:18:47;;;;;;;7.10;4.70;;;;;;;-145.41;100.00;58600.66;5002982;28;20096;-76
2023/04/20 01:21:15;;;;;;;6.00;4.22;;;;;;;-145.41;100.00;58600.66;4983343;28;20035;-76
2023/04/20 01:23:40;;;;;;;8.40;4.80;;;;;;;-145.41;100.00;58600.66;4999871;28;20045;-76
2023/04/20 01:26:11;;;;;;;6.05;4.32;;;;;;;-145.41;100.00;58600.66;4991402;28;20030;-76
2023/04/20 01:28:36;;;;;;;7.30;4.90;;;;;;;-145.41;100.00;58600.66;4973741;28;20137;-76
2023/04/20 01:31:03;;;;;;;7.28;5.28;;;;;;;-145.41;100.00;58600.66;4991238;28;20121;-76
2023/04/20 01:33:30;;;;;;;6.18;4.53;;;;;;;-145.41;100.00;58600.66;4991271;28;20044;-76
2023/04/20 01:35:56;;;;;;;6.78;4.38;;;;;;;-145.41;100.00;58600.66;4993405;28;20400;-76
2023/04/20 01:38:22;;;;;;;6.07;4.22;;;;;;;-145.41;100.00;58600.66;4977364;28;20089;-76
2023/04/20 01:40:48;;;;;;;6.45;4.43;;;;;;;-145.41;100.00;58600.66;4977169;28;20038;-76
2023/04/20 01:43:14;;;;;;;5.13;3.65;;;;;;;-145.41;100.00;58600.66;4977297;28;20054;-76
2023/04/20 01:45:39;;;;;;;6.07;4.20;;;;;;;-145.41;100.00;58600.66;4994487;28;20030;-76
2023/04/20 01:48:05;;;;;;;5.80;3.97;;;;;;;-145.41;100.00;58600.66;4985054;28;20484;-76
2023/04/20 01:50:31;;;;;;;7.13;4.35;;;;;;;-145.41;100.00;58600.66;4977016;28;20041;-76
2023/04/20 01:52:56;;;;;;;7.55;5.25;;;;;;;-145.41;100.00;58600.66;4994567;28;20405;-76
2023/04/20 01:55:22;;;;;;;7.95;4.68;;;;;;;-145.41;100.00;58600.66;4985565;28;20452;-76
2023/04/20 01:57:47;;;;;;;7.47;4.43;;;;;;;-145.41;100.00;58600.66;4994633;28;20484;-76
2023/04/20 02:00:13;;;;;;;7.55;4.40;;;;;;;-145.41;100.00;58600.66;4985134;28;20125;-76
2023/04/20 02:02:42;;;;;;;8.43;4.90;;;;;;;-145.41;100.00;58600.66;4977074;28;20045;-76
2023/04/20 02:05:08;;;;;;;5.95;3.92;;;;;;;-145.41;100.00;58600.66;4994512;28;20070;-76
2023/04/20 02:07:33;;;;;;;5.95;3.95;;;;;;;-145.41;100.00;58600.66;4976809;28;20089;-76
2023/04/20 02:09:58;;;;;;;7.15;4.55;;;;;;;-145.41;100.00;58600.66;4994134;28;20042;-76
2023/04/20 02:12:24;;;;;;;6.03;3.95;;;;;;;-145.41;100.00;58600.66;4994387;28;20040;-76
2023/04/20 02:14:49;;;;;;;7.05;5.00;;;;;;;-145.41;100.00;58600.66;4976689;28;20401;-76
2023/04/20 02:17:15;;;;;;;6.85;4.60;;;;;;;-145.41;100.00;58600.66;4976691;28;20072;-76
2023/04/20 02:19:40;;;;;;;7.43;4.47;;;;;;;-145.41;100.00;58600.66;4984297;28;20369;-76
2023/04/20 02:22:06;;;;;;;7.57;5.10;;;;;;;-145.41;100.00;58600.66;4994050;28;20118;-76
2023/04/20 02:24:31;;;;;;;8.90;5.70;;;;;;;-145.41;100.00;58600.66;4974928;28;20027;-76
2023/04/20 02:26:57;;;;;;;7.60;4.78;;;;;;;-145.41;100.00;58600.66;4983444;28;20033;-76
2023/04/20 02:29:23;;;;;;;8.25;5.40;;;;;;;-145.41;100.00;58600.66;4993803;28;20027;-76
2023/04/20 02:31:48;;;;;;;11.20;6.72;;;;;;;-145.41;100.00;58600.66;4976654;28;20033;-76
2023/04/20 02:34:14;;;;;;;8.05;5.80;;;;;;;-145.41;100.00;58600.66;4995073;28;20045;-76
2023/04/20 02:36:40;;;;;;;9.77;5.82;;;;;;;-145.41;100.00;58600.66;4993801;28;20049;-76
2023/04/20 02:39:05;;;;;;;9.65;6.03;;;;;;;-145.41;100.00;58600.66;4993432;28;20034;-76
2023/04/20 02:41:32;;;;;;;10.15;6.95;;;;;;;-145.41;100.00;58600.66;4993790;28;20531;-76
2023/04/20 02:44:00;;;;;;;10.38;7.00;;;;;;;-145.41;100.00;58600.66;4976235;28;20029;-76
2023/04/20 02:46:26;;;;;;;10.80;7.32;;;;;;;-145.41;100.00;58600.66;4983697;28;20496;-76
2023/04/20 02:48:51;;;;;;;12.48;8.57;;;;;;;-145.41;100.00;58600.66;4983863;28;20529;-76
2023/04/20 02:51:17;;;;;;;18.90;12.45;;;;;;;-145.41;100.00;58600.66;4985215;28;20034;-76
2023/04/20 02:53:44;;;;;;;16.33;11.40;;;;;;;-145.41;100.00;58600.66;4972330;28;20034;-76
2023/04/20 02:56:16;;;;;;;17.15;11.68;;;;;;;-145.41;100.00;58600.66;4976272;28;20030;-76
2023/04/20 02:58:51;;;;;;;20.13;13.13;;;;;;;-145.41;100.00;58600.66;4975697;28;20054;-75
2023/04/20 03:01:27;;;;;;;16.25;11.60;;;;;;;-145.41;100.00;58600.66;4980010;28;20076;-76
2023/04/20 03:04:01;;;;;;;17.27;11.82;;;;;;;-145.41;100.00;58600.66;4984295;28;20421;-76
2023/04/20 03:06:26;;;;;;;17.00;11.45;;;;;;;-145.41;100.00;58600.66;4993294;28;20038;-76
2023/04/20 03:08:55;;;;;;;15.07;10.73;;;;;;;-145.41;100.00;58600.66;4993138;28;20034;-76
2023/04/20 03:11:44;;;;;;;13.65;9.77;;;;;;;-145.41;100.00;58600.66;4973267;28;20031;-76
2023/04/20 03:14:16;;;;;;;13.05;8.75;;;;;;;-145.41;100.00;58600.66;4975505;28;20038;-76
2023/04/20 03:16:42;;;;;;;13.18;8.85;;;;;;;-145.41;100.00;58600.66;4975414;28;20050;-76
2023/04/20 03:19:08;;;;;;;13.02;8.50;;;;;;;-145.41;100.00;58600.66;4975180;28;20133;-76
2023/04/20 03:21:34;;;;;;;12.90;8.82;;;;;;;-145.41;100.00;58600.66;4983951;28;20200;-76
2023/04/20 03:24:00;;;;;;;11.38;8.65;;;;;;;-145.41;100.00;58600.66;4975561;28;20561;-76
2023/04/20 03:26:25;;;;;;;14.50;8.55;;;;;;;-145.41;100.00;58600.66;4959768;28;20053;-75
2023/04/20 03:29:03;;;;;;;11.65;8.65;;;;;;;-145.41;100.00;58600.66;4970310;28;20575;-75
2023/04/20 03:31:28;;;;;;;12.32;8.05;;;;;;;-145.41;100.00;58600.66;4975387;28;20065;-76
2023/04/20 03:33:55;;;;;;;11.85;8.20;;;;;;;-145.41;100.00;58600.66;4974979;28;20041;-76
2023/04/20 03:36:21;;;;;;;12.10;8.35;;;;;;;-145.41;100.00;58600.66;4992793;28;20034;-75
2023/04/20 03:38:46;;;;;;;9.40;7.07;;;;;;;-145.41;100.00;58600.66;4992812;28;20493;-76
2023/04/20 03:41:13;;;;;;;10.23;7.57;;;;;;;-145.41;100.00;58600.66;4982741;28;20040;-76
2023/04/20 03:43:40;;;;;;;10.85;7.18;;;;;;;-145.41;100.00;58600.66;4970117;28;20046;-76
2023/04/20 03:46:06;;;;;;;10.15;7.63;;;;;;;-145.41;100.00;58600.66;4983394;28;20047;-75
2023/04/20 03:48:32;;;;;;;11.35;8.65;;;;;;;-145.41;100.00;58600.66;4980607;28;20440;-75
2023/04/20 03:50:57;;;;;;;9.88;7.57;;;;;;;-145.41;100.00;58600.66;4972230;28;20030;-75
2023/04/20 03:53:23;;;;;;;10.57;7.78;;;;;;;-145.41;100.00;58600.66;4992117;28;20030;-76
2023/04/20 03:55:48;;;;;;;10.95;8.38;;;;;;;-145.41;100.00;58600.66;4982761;28;20034;-76
2023/04/20 03:58:19;;;;;;;11.65;8.25;;;;;;;-145.41;100.00;58600.66;4974845;28;20129;-76
2023/04/20 04:01:08;;;;;;;11.18;8.27;;;;;;;-145.41;100.00;58600.66;4970448;28;20097;-76
2023/04/20 04:03:36;;;;;;;10.45;7.75;;;;;;;-145.41;100.00;58600.66;4987783;28;20045;-76
2023/04/20 04:06:02;;;;;;;9.27;7.20;;;;;;;-145.41;100.00;58600.66;4980183;28;20389;-76
2023/04/20 04:08:30;;;;;;;10.57;8.48;;;;;;;-145.41;100.00;58600.66;4974770;28;20085;-76
2023/04/20 04:10:55;;;;;;;11.10;8.65;;;;;;;-145.41;100.00;58600.66;4958361;28;20504;-76
2023/04/20 04:13:21;;;;;;;11.48;8.95;;;;;;;-145.41;100.00;58600.66;4991784;28;20037;-76
2023/04/20 04:15:46;;;;;;;11.15;9.20;;;;;;;-145.41;100.00;58600.66;4982823;28;20073;-76
2023/04/20 04:18:12;;;;;;;12.27;8.43;;;;;;;-145.41;100.00;58600.66;4978679;28;20027;-76
2023/04/20 04:20:39;;;;;;;10.30;7.38;;;;;;;-145.41;100.00;58600.66;4982656;28;20026;-76
2023/04/20 04:23:05;;;;;;;9.85;7.38;;;;;;;-145.41;100.00;58600.66;4982318;28;20042;-77
2023/04/20 04:25:41;;;;;;;28.83;17.55;;;;;;;-145.41;100.00;58600.66;4974413;28;20125;-76
2023/04/20 04:28:08;;;;;;;17.30;11.55;;;;;;;-145.41;100.00;58600.66;4982733;28;20034;-76
2023/04/20 04:30:36;;;;;;;13.50;8.98;;;;;;;-145.41;100.00;58600.66;4994986;28;20034;-76
2023/04/20 04:33:03;;;;;;;10.07;8.10;;;;;;;-145.41;100.00;58600.66;4979339;28;20068;-76
2023/04/20 04:35:34;;;;;;;9.85;6.97;;;;;;;-145.41;100.00;58600.66;4975177;28;20043;-76
2023/04/20 04:37:59;;;;;;;11.88;9.20;;;;;;;-145.41;100.00;58600.66;4974244;28;20035;-76
2023/04/20 04:40:26;;;;;;;12.20;9.32;;;;;;;-145.41;100.00;58600.66;4978044;28;20109;-76
2023/04/20 04:42:54;;;;;;;13.10;8.73;;;;;;;-145.41;100.00;58600.66;4982658;28;20042;-76
2023/04/20 04:45:20;;;;;;;10.27;6.95;;;;;;;-145.41;100.00;58600.66;4974293;28;20061;-76
2023/04/20 04:47:45;;;;;;;9.55;7.05;;;;;;;-145.41;100.00;58600.66;4977044;28;20112;-76
2023/04/20 04:50:11;;;;;;;9.23;7.03;;;;;;;-145.41;100.00;58600.66;4995658;28;20108;-76
2023/04/20 04:52:37;;;;;;;9.48;6.55;;;;;;;-145.41;100.00;58600.66;4994810;28;20038;-76
2023/04/20 04:55:06;;;;;;;11.23;7.68;;;;;;;-145.41;100.00;58600.66;4985491;28;20050;-76
2023/04/20 04:57:32;;;;;;;11.32;8.35;;;;;;;-145.41;100.00;58600.66;4978533;28;20045;-75
2023/04/20 04:59:57;;;;;;;10.73;7.75;;;;;;;-145.41;100.00;58600.66;4983531;28;20030;-76
2023/04/20 05:02:22;;;;;;;10.48;7.60;;;;;;;-145.41;100.00;58600.66;4995074;28;20154;-75
2023/04/20 05:04:48;;;;;;;18.60;12.60;;;;;;;-145.41;100.00;58600.66;4994959;28;20045;-75
2023/04/20 05:07:14;;;;;;;13.13;9.52;;;;;;;-145.41;100.00;58600.66;4992788;28;20038;-76
2023/04/20 05:09:39;;;;;;;11.68;8.75;;;;;;;-145.41;100.00;58600.66;4991327;28;20053;-76
2023/04/20 05:12:05;;;;;;;12.38;9.20;;;;;;;-145.41;100.00;58600.66;4994178;28;20053;-76
2023/04/20 05:14:31;;;;;;;12.23;8.43;;;;;;;-145.41;100.00;58600.66;4995194;28;20049;-76
2023/04/20 05:16:57;;;;;;;10.65;7.75;;;;;;;-145.41;100.00;58600.66;4995305;28;20147;-76
2023/04/20 05:19:23;;;;;;;13.30;9.02;;;;;;;-145.41;100.00;58600.66;4995026;28;20065;-76
2023/04/20 05:21:48;;;;;;;11.88;8.63;;;;;;;-145.41;100.00;58600.66;4995146;28;20085;-76
2023/04/20 05:24:13;;;;;;;12.75;9.32;;;;;;;-145.41;100.00;58600.66;4995237;28;20070;-76
2023/04/20 05:26:39;;;;;;;13.18;8.95;;;;;;;-145.41;100.00;58600.66;4993526;28;20488;-76
2023/04/20 05:29:04;;;;;;;11.80;8.48;;;;;;;-145.41;100.00;58600.66;4999779;28;20049;-76
2023/04/20 05:31:32;;;;;;;10.88;7.53;;;;;;;-145.41;100.00;58600.66;4997274;28;20026;-76
2023/04/20 05:33:58;;;;;;;12.27;8.02;;;;;;;-145.41;100.00;58600.66;4985724;28;20045;-76
2023/04/20 05:36:23;;;;;;;11.82;8.00;;;;;;;-145.41;100.00;58600.66;4994526;28;20468;-76
2023/04/20 05:38:49;;;;;;;15.88;10.52;;;;;;;-145.41;100.00;58600.66;4998012;28;20037;-76
2023/04/20 05:41:14;;;;;;;12.98;9.18;;;;;;;-145.41;100.00;58600.66;4998340;28;20516;-76
2023/04/20 05:43:39;;;;;;;12.00;8.77;;;;;;;-145.41;100.00;58600.66;4994519;28;20404;-76
2023/04/20 05:46:05;;;;;;;10.48;8.20;;;;;;;-145.41;100.00;58600.66;4993746;28;20432;-76
2023/04/20 05:48:30;;;;;;;14.02;10.07;;;;;;;-145.41;100.00;58600.66;4994721;28;20122;-76
2023/04/20 05:50:56;;;;;;;13.90;9.80;;;;;;;-145.41;100.00;58600.66;4972543;28;20069;-76
2023/04/20 05:53:21;;;;;;;10.18;8.00;;;;;;;-145.41;100.00;58600.66;4994346;28;20034;-76
2023/04/20 05:55:47;;;;;;;11.52;8.27;;;;;;;-145.41;100.00;58600.66;4994699;28;20045;-76
2023/04/20 05:58:12;;;;;;;12.85;9.32;;;;;;;-145.41;100.00;58600.66;4994392;28;20038;-76
2023/04/20 06:00:38;;;;;;;12.85;7.95;;;;;;;-145.41;100.00;58600.66;4993910;28;20081;-76
2023/04/20 06:03:03;;;;;;;11.13;7.82;;;;;;;-145.41;100.00;58600.66;4994140;28;20046;-76
2023/04/20 06:05:28;;;;;;;10.98;7.72;;;;;;;-145.41;100.00;58600.66;4994100;28;20038;-76
2023/04/20 06:07:54;;;;;;;15.15;11.48;;;;;;;-145.41;100.00;58600.66;4993838;28;20049;-76
2023/04/20 06:10:19;;;;;;;15.82;11.57;;;;;;;-145.41;100.00;58600.66;4993843;28;20045;-76
2023/04/20 06:12:45;;;;;;;16.35;11.35;;;;;;;-145.41;100.00;58600.66;4993931;28;20097;-76
2023/04/20 06:15:10;;;;;;;17.35;11.45;;;;;;;-145.41;100.00;58600.66;4993914;28;20085;-76
2023/04/20 06:17:39;;;;;;;13.77;10.45;;;;;;;-145.41;100.00;58600.66;4993868;28;20128;-76
2023/04/20 06:20:09;;;;;;;16.90;12.75;;;;;;;-145.41;100.00;58600.66;4993142;28;20026;-76
2023/04/20 06:22:35;;;;;;;18.27;13.35;;;;;;;-145.41;100.00;58600.66;4992769;28;20046;-76
2023/04/20 06:25:01;;;;;;;14.88;11.15;;;;;;;-145.41;100.00;58600.66;4993714;28;20501;-76
2023/04/20 06:27:27;;;;;;;13.63;10.30;;;;;;;-145.41;100.00;58600.66;4993752;28;20035;-76
2023/04/20 06:29:53;;;;;;;15.80;11.57;;;;;;;-145.41;100.00;58600.66;4993337;28;20027;-76
2023/04/20 06:32:19;;;;;;;11.77;9.40;;;;;;;-145.41;100.00;58600.66;4993538;28;20038;-76
2023/04/20 06:34:46;;;;;;;16.23;12.10;;;;;;;-145.41;100.00;58600.66;4993302;28;20038;-76
2023/04/20 06:37:12;;;;;;;24.95;17.33;;;;;;;-145.41;100.00;58600.66;4993913;28;20563;-76
2023/04/20 06:39:37;;;;;;;20.20;14.90;;;;;;;-145.41;100.00;58600.66;4976156;28;20031;-76
2023/04/20 06:42:02;;;;;;;17.35;12.60;;;;;;;-145.41;100.00;58600.66;4992981;28;20101;-76
2023/04/20 06:44:27;;;;;;;25.00;16.65;;;;;;;-145.41;100.00;58600.66;4989369;28;20042;-76
2023/04/20 06:46:53;;;;;;;19.08;13.32;;;;;;;-145.41;100.00;58600.66;4992954;28;20041;-76
2023/04/20 06:49:18;;;;;;;14.65;10.70;;;;;;;-145.41;100.00;58600.66;4979488;28;20125;-76
2023/04/20 06:51:44;;;;;;;14.07;10.43;;;;;;;-145.41;100.00;58600.66;4993602;28;20038;-76
2023/04/20 06:54:09;;;;;;;14.15;9.68;;;;;;;-145.41;100.00;58600.66;4995033;28;20101;-76
2023/04/20 06:56:34;;;;;;;15.13;10.63;;;;;;;-145.41;100.00;58600.66;4997084;28;20057;-76
2023/04/20 06:59:00;;;;;;;14.50;11.13;;;;;;;-145.41;100.00;58600.66;4987970;28;20756;-76
2023/04/20 07:01:25;;;;;;;13.63;8.85;;;;;;;-145.41;100.00;58600.66;4993826;28;20026;-76
2023/04/20 07:03:51;;;;;;;14.15;9.45;;;;;;;-145.41;100.00;58600.66;4995116;28;20497;-76
2023/04/20 07:06:16;;;;;;;13.32;10.15;;;;;;;-145.41;100.00;58600.66;4995340;28;20073;-76
2023/04/20 07:08:42;;;;;;;10.95;7.93;;;;;;;-145.41;100.00;58600.66;4999491;28;20104;-76
2023/04/20 07:11:07;;;;;;;9.65;7.32;;;;;;;-145.41;100.00;58600.66;4996325;28;20035;-76
2023/04/20 07:13:32;;;;;;;11.57;8.63;;;;;;;-145.41;100.00;58600.66;4994012;28;20022;-76
2023/04/20 07:15:58;;;;;;;13.57;9.57;;;;;;;-145.41;100.00;58600.66;4992988;28;20041;-76
2023/04/20 07:18:23;;;;;;;13.35;9.40;;;;;;;-145.41;100.00;58600.66;5007909;23;20018;-72
2023/04/20 07:20:48;;;;;;;11.27;8.30;;;;;;;-145.41;100.00;58600.66;5000096;28;20045;-73
2023/04/20 07:23:14;;;;;;;14.77;9.63;;;;;;;-145.41;100.00;58600.66;5001870;28;20634;-73
2023/04/20 07:25:39;;;;;;;13.10;9.10;;;;;;;-145.41;100.00;58600.66;5003868;28;20475;-73
2023/04/20 07:28:04;;;;;;;12.68;9.27;;;;;;;-145.41;100.00;58600.66;4999335;28;20043;-73
2023/04/20 07:30:30;;;;;;;9.93;7.50;;;;;;;-145.41;100.00;58600.66;4992706;28;20156;-72
2023/04/20 07:32:56;;;;;;;10.90;7.80;;;;;;;-145.41;100.00;58600.66;4983485;28;20062;-73
2023/04/20 07:35:21;;;;;;;11.50;8.13;;;;;;;-145.41;100.00;58600.66;4978627;28;20084;-72
2023/04/20 07:37:47;;;;;;;10.40;7.75;;;;;;;-145.41;100.00;58600.66;4998881;28;20041;-73
2023/04/20 07:40:12;;;;;;;10.82;7.82;;;;;;;-145.41;100.00;58600.66;4992127;28;20046;-73
2023/04/20 07:42:37;;;;;;;11.77;8.35;;;;;;;-145.41;100.00;58600.66;4993364;28;20560;-73
2023/04/20 07:45:06;;;;;;;13.05;8.50;;;;;;;-145.41;100.00;58600.66;4996313;28;20566;-73
2023/04/20 07:47:35;;;;;;;11.23;8.18;;;;;;;-145.41;100.00;58600.66;4995886;28;20045;-73
2023/04/20 07:50:01;;;;;;;13.32;8.82;;;;;;;-145.41;100.00;58600.66;4991949;28;20404;-73
2023/04/20 07:52:26;;;;;;;12.32;8.18;;;;;;;-145.41;100.00;58600.66;4992428;28;20044;-73
2023/04/20 07:54:57;;;;;;;30.83;20.13;;;;;;;-145.41;100.00;58600.66;4994541;28;20042;-73
2023/04/20 07:57:23;;;;;;;13.07;9.43;;;;;;;-145.41;100.00;58600.66;4983239;28;20030;-73
2023/04/20 07:59:48;;;;;;;11.70;8.23;;;;;;;-145.41;100.00;58600.66;4991936;28;20064;-72
2023/04/20 08:02:14;;;;;;;11.13;8.70;;;;;;;-145.41;100.00;58600.66;4985792;28;20046;-73
2023/04/20 08:04:40;;;;;;;10.25;7.72;;;;;;;-145.41;100.00;58600.66;4992374;28;20034;-73
2023/04/20 08:07:05;;;;;;;12.35;9.30;;;;;;;-145.41;100.00;58600.66;4992109;28;20038;-73
2023/04/20 08:09:31;;;;;;;14.82;11.18;;;;;;;-145.41;100.00;58600.66;4991873;28;20040;-73
2023/04/20 08:11:56;;;;;;;12.88;9.88;;;;;;;-145.41;100.00;58600.66;4992633;28;20113;-73
2023/04/20 08:14:22;;;;;;;14.38;10.18;;;;;;;-145.41;100.00;58600.66;4995867;28;20034;-72
2023/04/20 08:16:47;;;;;;;11.77;8.90;;;;;;;-145.41;100.00;58600.66;4992096;28;20088;-73
2023/04/20 08:19:13;;;;;;;11.88;9.77;;;;;;;-145.41;100.00;58600.66;4991621;28;20133;-73
2023/04/20 08:21:39;;;;;;;10.77;8.77;;;;;;;-145.41;100.00;58600.66;4992140;28;20037;-72
2023/04/20 08:24:06;;;;;;;14.27;10.52;;;;;;;-145.41;100.00;58600.66;4991918;28;20041;-73
2023/04/20 08:26:32;;;;;;;13.73;9.80;;;;;;;-145.41;100.00;58600.66;4991893;28;20042;-73
2023/04/20 08:28:59;;;;;;;16.17;12.45;;;;;;;-145.41;100.00;58600.66;4991440;28;20042;-73
2023/04/20 08:31:24;;;;;;;17.70;13.48;;;;;;;-145.41;100.00;58600.66;4991864;28;20026;-72
2023/04/20 08:33:50;;;;;;;15.02;10.15;;;;;;;-145.41;100.00;58600.66;4991942;28;20553;-73
2023/04/20 08:36:15;;;;;;;11.35;9.25;;;;;;;-145.41;100.00;58600.66;4974504;28;20053;-73
2023/04/20 08:38:40;;;;;;;14.82;11.23;;;;;;;-145.41;100.00;58600.66;4991642;28;20121;-73
2023/04/20 08:41:06;;;;;;;17.48;12.77;;;;;;;-145.41;100.00;58600.66;4990387;28;20031;-73
2023/04/20 08:43:31;;;;;;;14.00;10.75;;;;;;;-145.41;100.00;58600.66;4989535;28;20039;-73
2023/04/20 08:45:58;;;;;;;9.63;6.95;;;;;;;-145.41;100.00;58600.66;4990995;28;20046;-74
2023/04/20 08:48:25;;;;;;;9.15;5.93;;;;;;;-145.41;100.00;58600.66;4990454;28;20092;-73
2023/04/20 08:50:51;;;;;;;10.73;7.50;;;;;;;-145.41;100.00;58600.66;4977968;28;20039;-73
2023/04/20 08:53:17;;;;;;;13.60;8.77;;;;;;;-145.41;100.00;58600.66;4988488;28;20485;-73
2023/04/20 08:55:42;;;;;;;11.13;8.65;;;;;;;-145.41;100.00;58600.66;4991935;28;20038;-73
2023/04/20 08:58:07;;;;;;;9.73;7.28;;;;;;;-145.41;100.00;58600.66;4991336;28;20030;-73
2023/04/20 09:00:33;;;;;;;8.77;6.95;;;;;;;-145.41;100.00;58600.66;4990506;28;20100;-72
2023/04/20 09:03:00;;;;;;;12.70;8.80;;;;;;;-145.41;100.00;58600.66;4989836;28;20117;-73
2023/04/20 09:05:30;;;;;;;9.65;8.15;;;;;;;-145.41;100.00;58600.66;4994178;28;20512;-73
2023/04/20 09:07:58;;;;;;;9.95;7.10;;;;;;;-145.41;100.00;58600.66;4989405;28;20030;-73
2023/04/20 09:10:24;;;;;;;7.47;5.35;;;;;;;-145.41;100.00;58600.66;4981122;28;20042;-72
2023/04/20 09:12:51;;;;;;;9.60;5.10;;;;;;;-145.41;100.00;58600.66;4997356;28;20034;-73
2023/04/20 09:15:27;;;;;;;8.60;5.63;;;;;;;-145.41;100.00;58600.66;4991301;28;20053;-73
2023/04/20 09:17:53;;;;;;;8.20;6.32;;;;;;;-145.41;100.00;58600.66;4990455;28;20049;-73
2023/04/20 09:20:31;;;;;;;20.50;14.20;;;;;;;-145.41;100.00;58600.66;4990892;28;20047;-74
2023/04/20 09:22:57;;;;;;;15.93;13.05;;;;;;;-145.41;100.00;58600.66;4995554;28;20041;-73
2023/04/20 09:25:25;;;;;;;13.38;10.20;;;;;;;-145.41;100.00;58600.66;4990902;28;20042;-72
2023/04/20 09:27:57;;;;;;;13.32;11.20;;;;;;;-145.41;100.00;58600.66;4981392;28;20492;-74
2023/04/20 09:30:22;;;;;;;17.38;12.65;;;;;;;-145.41;100.00;58600.66;4993104;28;20034;-74
2023/04/20 09:32:48;;;;;;;19.98;13.27;;;;;;;-145.41;100.00;58600.66;4992958;28;20121;-74
2023/04/20 09:35:22;;;;;;;21.00;15.18;;;;;;;-145.41;100.00;58600.66;4990398;28;20129;-72
2023/04/20 09:37:47;;;;;;;23.13;15.82;;;;;;;-145.41;100.00;58600.66;4989296;28;20057;-72
2023/04/20 09:40:13;;;;;;;20.83;15.77;;;;;;;-145.41;100.00;58600.66;4989990;28;20074;-72
2023/04/20 09:42:41;;;;;;;19.38;15.23;;;;;;;-145.41;100.00;58600.66;4998352;28;20069;-72
2023/04/20 09:45:07;;;;;;;20.33;15.35;;;;;;;-145.41;100.00;58600.66;4991239;28;20044;-72
2023/04/20 09:47:35;;;;;;;21.60;14.48;;;;;;;-145.41;100.00;58600.66;4992932;28;20088;-72
2023/04/20 09:50:03;;;;;;;9.10;7.57;;;;;;;-145.41;100.00;58600.66;4991300;28;20043;-72
2023/04/20 09:52:29;;;;;;;11.65;8.55;;;;;;;-145.41;100.00;58600.66;4973663;28;20093;-72
2023/04/20 09:54:56;;;;;;;16.23;12.63;;;;;;;-145.41;100.00;58600.66;4990984;28;20042;-72
2023/04/20 09:57:22;;;;;;;19.25;14.80;;;;;;;-145.41;100.00;58600.66;4995746;28;20492;-72
2023/04/20 09:59:50;;;;;;;13.55;10.55;;;;;;;-145.41;100.00;58600.66;4997341;28;20445;-72
2023/04/20 10:02:15;;;;;;;11.00;8.13;;;;;;;-145.41;100.00;58600.66;4995288;28;20061;-72
2023/04/20 10:04:54;;;;;;;13.48;8.15;;;;;;;-145.41;100.00;58600.66;4997075;28;20643;-72
2023/04/20 10:07:28;;;;;;;11.23;8.13;;;;;;;-145.41;100.00;58600.66;4990869;28;20046;-71
2023/04/20 10:10:07;;;;;;;9.80;7.38;;;;;;;-145.41;100.00;58600.66;4994064;28;20034;-72
2023/04/20 10:12:35;;;;;;;13.20;9.50;;;;;;;-145.41;100.00;58600.66;4998042;28;20042;-72
2023/04/20 10:15:01;;;;;;;11.30;8.45;;;;;;;-145.41;100.00;58600.66;4990874;28;20401;-72
2023/04/20 10:17:31;;;;;;;10.55;7.88;;;;;;;-145.41;100.00;58600.66;4974654;28;20046;-72
2023/04/20 10:19:57;;;;;;;12.18;8.80;;;;;;;-145.41;100.00;58600.66;4990791;28;20061;-72
2023/04/20 10:22:32;;;;;;;10.95;8.07;;;;;;;-145.41;100.00;58600.66;4994195;28;20501;-71
2023/04/20 10:24:59;;;;;;;12.10;8.30;;;;;;;-145.41;100.00;58600.66;4976649;28;20404;-72
2023/04/20 10:27:24;;;;;;;11.32;7.70;;;;;;;-145.41;100.00;58600.66;4993633;28;20034;-72
2023/04/20 10:29:49;;;;;;;12.20;9.10;;;;;;;-145.41;100.00;58600.66;4993717;28;20652;-74
2023/04/20 10:32:27;;;;;;;10.27;8.50;;;;;;;-145.41;100.00;58600.66;4993960;28;20038;-71
2023/04/20 10:35:07;;;;;;;10.52;7.40;;;;;;;-145.41;100.00;58600.66;4990828;28;20038;-73
2023/04/20 10:37:33;;;;;;;11.38;7.95;;;;;;;-145.41;100.00;58600.66;4993555;28;20058;-72
2023/04/20 10:39:59;;;;;;;11.25;7.32;;;;;;;-145.41;100.00;58600.66;4993435;28;20041;-72
2023/04/20 10:42:28;;;;;;;11.85;9.23;;;;;;;-145.41;100.00;58600.66;4993384;28;20045;-72
2023/04/20 10:44:54;;;;;;;10.57;7.68;;;;;;;-145.41;100.00;58600.66;4993057;28;20042;-72
2023/04/20 10:47:28;;;;;;;14.00;10.23;;;;;;;-145.41;100.00;58600.66;4993292;28;20085;-72
2023/04/20 10:49:53;;;;;;;12.50;9.82;;;;;;;-145.41;100.00;58600.66;4990673;28;20042;-72
2023/04/20 10:52:40;;;;;;;13.23;10.32;;;;;;;-145.41;100.00;58600.66;4995046;28;20042;-72
2023/04/20 10:55:17;;;;;;;12.93;8.57;;;;;;;-145.41;100.00;58600.66;4993322;28;20066;-71
2023/04/20 10:57:46;;;;;;;12.98;9.25;;;;;;;-145.41;100.00;58600.66;4993428;28;20030;-72
2023/04/20 11:00:15;;;;;;;12.77;9.40;;;;;;;-145.41;100.00;58600.66;4990438;28;20034;-72